createdAt,value
2016-09-19T14:31:40.913Z,40
2016-09-19T14:32:40.610Z,40
2016-09-19T14:33:40.559Z,40
2016-09-19T14:34:41.453Z,40
2016-09-19T14:35:40.449Z,40
2016-09-19T14:36:41.758Z,36
2016-09-19T14:37:40.819Z,36
2016-09-19T14:38:41.650Z,32
2016-09-19T14:39:40.400Z,32
2016-09-19T14:40:41.543Z,28
2016-09-19T14:41:40.609Z,32
2016-09-19T14:42:39.998Z,28
2016-09-19T14:43:40.170Z,32
2016-09-19T14:44:40.628Z,32
2016-09-19T14:45:40.650Z,28
2016-09-19T14:46:40.308Z,28
2016-09-19T14:47:41.232Z,28
2016-09-19T14:48:39.654Z,28
2016-09-19T14:49:40.127Z,28
2016-09-19T14:50:40.383Z,28
2016-09-19T14:51:39.988Z,28
2016-09-19T14:52:39.935Z,28
2016-09-19T14:53:39.561Z,28
2016-09-19T14:54:39.609Z,28
2016-09-19T14:55:39.983Z,28
2016-09-19T14:56:39.656Z,28
2016-09-19T14:57:39.118Z,32
2016-09-19T14:58:39.104Z,32
2016-09-19T14:59:38.986Z,28
2016-09-19T15:00:38.921Z,24
2016-09-19T15:01:40.253Z,24
2016-09-19T15:02:42.378Z,20
2016-09-19T15:03:38.740Z,20
2016-09-19T15:04:38.698Z,24
2016-09-19T15:05:38.642Z,24
2016-09-19T15:06:38.794Z,24
2016-09-19T15:07:39.167Z,24
2016-09-19T15:08:38.466Z,24
2016-09-19T15:09:39.411Z,24
2016-09-19T15:10:39.296Z,24
2016-09-19T15:11:38.726Z,24
2016-09-19T15:12:38.903Z,24
2016-09-19T15:13:39.610Z,24
2016-09-19T15:14:38.283Z,28
2016-09-19T15:15:38.049Z,24
2016-09-19T15:16:38.197Z,24
2016-09-19T15:17:38.437Z,24
2016-09-19T15:18:38.662Z,28
2016-09-19T15:19:38.335Z,28
2016-09-19T15:20:38.191Z,28
2016-09-19T15:21:38.208Z,28
2016-09-19T15:22:38.225Z,32
2016-09-19T15:23:37.736Z,32
2016-09-19T15:24:38.470Z,32
2016-09-19T15:25:37.748Z,32
2016-09-19T15:26:37.900Z,32
2016-09-19T15:27:37.510Z,28
2016-09-19T15:28:37.499Z,28
2016-09-19T15:29:37.810Z,28
2016-09-19T15:30:37.124Z,24
2016-09-19T15:31:37.261Z,28
2016-09-19T15:32:38.075Z,24
2016-09-19T15:33:37.522Z,24
2016-09-19T15:34:37.433Z,24
2016-09-19T15:35:37.238Z,24
2016-09-19T15:36:37.517Z,24
2016-09-19T15:37:36.704Z,24
2016-09-19T15:38:36.647Z,28
2016-09-19T15:39:36.602Z,24
2016-09-19T15:40:36.731Z,24
2016-09-19T15:41:37.335Z,28
2016-09-19T15:42:37.048Z,24
2016-09-19T15:43:37.773Z,28
2016-09-19T15:44:36.633Z,32
2016-09-19T15:45:38.076Z,36
2016-09-19T15:46:36.161Z,36
2016-09-19T15:47:36.334Z,40
2016-09-19T15:48:37.459Z,36
2016-09-19T15:49:36.608Z,36
2016-09-19T15:50:36.589Z,36
2016-09-19T15:51:37.400Z,40
2016-09-19T15:52:36.337Z,40
2016-09-19T15:53:36.492Z,36
2016-09-19T15:54:36.246Z,36
2016-09-19T15:55:35.637Z,36
2016-09-19T15:56:36.093Z,32
2016-09-19T15:57:36.343Z,32
2016-09-19T15:58:36.393Z,32
2016-09-19T15:59:36.108Z,28
2016-09-19T16:00:35.947Z,28
2016-09-19T16:01:35.829Z,28
2016-09-19T16:02:35.426Z,24
2016-09-19T16:03:35.359Z,28
2016-09-19T16:04:35.805Z,20
2016-09-19T16:05:35.233Z,20
2016-09-19T16:06:35.676Z,16
2016-09-19T16:07:35.109Z,16
2016-09-19T16:08:35.069Z,20
2016-09-19T16:09:34.790Z,20
2016-09-19T16:10:35.253Z,20
2016-09-19T16:11:34.970Z,20
2016-09-19T16:12:35.335Z,20
2016-09-19T16:13:34.547Z,16
2016-09-19T16:14:35.310Z,16
2016-09-19T16:15:34.742Z,16
2016-09-19T16:16:34.944Z,16
2016-09-19T16:17:35.584Z,16
2016-09-19T16:18:34.702Z,16
2016-09-19T16:19:35.586Z,16
2016-09-19T16:20:34.128Z,16
2016-09-19T16:21:34.390Z,16
2016-09-19T16:22:34.220Z,16
2016-09-19T16:23:34.481Z,16
2016-09-19T16:24:35.706Z,16
2016-09-19T16:25:34.271Z,16
2016-09-19T16:26:34.013Z,16
2016-09-19T16:27:34.530Z,20
2016-09-19T16:28:33.649Z,24
2016-09-19T16:29:34.133Z,20
2016-09-19T16:30:33.525Z,20
2016-09-19T16:31:33.791Z,20
2016-09-19T16:32:34.479Z,20
2016-09-19T16:33:33.342Z,20
2016-09-19T16:34:34.079Z,20
2016-09-19T16:35:34.750Z,20
2016-09-19T16:36:33.486Z,20
2016-09-19T16:37:33.663Z,20
2016-09-19T16:38:33.884Z,16
2016-09-19T16:39:32.980Z,16
2016-09-19T16:40:33.349Z,12
2016-09-19T16:41:32.870Z,12
2016-09-19T16:42:33.215Z,12
2016-09-19T16:43:33.255Z,16
2016-09-19T16:44:33.528Z,12
2016-09-19T16:45:32.630Z,12
2016-09-19T16:46:32.836Z,12
2016-09-19T16:47:32.508Z,12
2016-09-19T16:48:32.439Z,12
2016-09-19T16:49:32.706Z,12
2016-09-19T16:50:33.059Z,12
2016-09-19T16:51:32.977Z,12
2016-09-19T16:52:32.219Z,12
2016-09-19T16:53:32.585Z,8
2016-09-19T16:54:32.598Z,12
2016-09-19T16:55:32.267Z,12
2016-09-19T16:56:32.593Z,12
2016-09-19T16:57:32.154Z,8
2016-09-19T16:58:32.249Z,8
2016-09-19T16:59:32.244Z,8
2016-09-19T17:00:32.440Z,8
2016-09-19T17:01:31.982Z,8
